Time;durP1;ratioP1;P1;durP2;ratioP2;P2;SDS_P1;SDS_P2;PMS_P1;PMS_P2;Temp;Humidity;BMP_temperature;BMP_pressure;BME280_temperature;BME280_humidity;BME280_pressure;Samples;Min_cycle;Max_cycle;Signal;HPM_P1;HPM_P2
2021/12/28 00:01:27;;;;;;;21.20;14.88;;;9.60;99.90;;;;;;5035382;28;20030;-76
2021/12/28 00:03:53;;;;;;;19.42;14.77;;;9.70;99.90;;;;;;5034841;28;20022;-76
2021/12/28 00:06:19;;;;;;;22.80;14.85;;;9.60;99.90;;;;;;5034985;28;20120;-76
2021/12/28 00:08:45;;;;;;;19.20;14.73;;;9.60;99.90;;;;;;5034864;28;20029;-76
2021/12/28 00:11:12;;;;;;;24.13;14.98;;;9.60;99.90;;;;;;5032124;28;20036;-78
2021/12/28 00:13:40;;;;;;;21.98;15.00;;;9.60;99.90;;;;;;5035043;28;20026;-75
2021/12/28 00:18:33;;;;;;;19.73;15.48;;;9.60;99.90;;;;;;5034732;28;20026;-78
2021/12/28 00:21:01;;;;;;;24.02;15.32;;;9.60;99.90;;;;;;5034710;28;20025;-76
2021/12/28 00:23:38;;;;;;;28.73;15.32;;;9.60;99.90;;;;;;5034424;28;20033;-76
2021/12/28 00:26:06;;;;;;;25.15;14.95;;;9.60;99.90;;;;;;5034685;28;20071;-76
2021/12/28 00:28:31;;;;;;;24.45;14.57;;;9.60;99.90;;;;;;5034797;28;20026;-76
2021/12/28 00:30:58;;;;;;;24.95;14.00;;;9.60;99.90;;;;;;5034330;28;20030;-76
2021/12/28 00:33:24;;;;;;;26.63;13.73;;;9.60;99.90;;;;;;5034774;28;20025;-77
2021/12/28 00:35:51;;;;;;;29.67;14.63;;;9.60;99.90;;;;;;5034319;28;20025;-77
2021/12/28 00:38:21;;;;;;;24.45;14.02;;;9.60;99.90;;;;;;5034283;28;20022;-76
2021/12/28 00:40:48;;;;;;;24.23;14.02;;;9.60;99.90;;;;;;5031913;28;20025;-76
2021/12/28 00:43:14;;;;;;;22.45;13.43;;;9.60;99.90;;;;;;5034010;28;20033;-76
2021/12/28 00:45:40;;;;;;;27.17;12.73;;;9.50;99.90;;;;;;5033719;28;20022;-77
2021/12/28 00:48:05;;;;;;;22.73;12.25;;;9.60;99.90;;;;;;5033903;28;20030;-76
2021/12/28 00:50:31;;;;;;;25.08;12.82;;;9.60;99.90;;;;;;5033661;28;20492;-77
2021/12/28 00:52:57;;;;;;;25.70;12.90;;;9.60;99.90;;;;;;5034232;28;20503;-77
2021/12/28 00:55:24;;;;;;;26.80;11.68;;;9.60;99.90;;;;;;5033297;28;20392;-77
2021/12/28 00:57:50;;;;;;;23.63;11.80;;;9.50;99.90;;;;;;5033806;28;20041;-77
2021/12/28 01:00:20;;;;;;;27.02;12.40;;;9.60;99.90;;;;;;5033597;28;20032;-77
2021/12/28 01:02:48;;;;;;;26.08;11.85;;;9.50;99.90;;;;;;5033639;28;20037;-77
2021/12/28 01:05:14;;;;;;;28.05;12.35;;;9.50;99.90;;;;;;5033811;28;20375;-77
2021/12/28 01:07:40;;;;;;;22.08;11.70;;;9.50;99.90;;;;;;5033351;28;20109;-77
2021/12/28 01:10:09;;;;;;;28.63;11.68;;;9.50;99.90;;;;;;5032821;28;20023;-77
2021/12/28 01:12:35;;;;;;;28.27;10.68;;;9.50;99.90;;;;;;5033180;28;20058;-77
2021/12/28 01:15:01;;;;;;;25.13;10.80;;;9.50;99.90;;;;;;5034143;28;20026;-76
2021/12/28 01:17:26;;;;;;;25.77;9.95;;;9.50;99.90;;;;;;5033187;28;20461;-77
2021/12/28 01:19:52;;;;;;;32.08;11.38;;;9.50;99.90;;;;;;5033556;28;20029;-76
2021/12/28 01:22:18;;;;;;;25.13;10.65;;;9.50;99.90;;;;;;5033500;28;20196;-76
2021/12/28 01:24:43;;;;;;;20.70;9.80;;;9.40;99.90;;;;;;5033658;28;20071;-77
2021/12/28 01:27:09;;;;;;;20.35;9.30;;;9.40;99.90;;;;;;5031724;28;20111;-77
2021/12/28 01:29:35;;;;;;;18.85;9.80;;;9.40;99.90;;;;;;5034127;28;20025;-78
2021/12/28 01:32:01;;;;;;;24.65;9.10;;;9.40;99.90;;;;;;5036541;28;20028;-76
2021/12/28 01:34:27;;;;;;;23.38;9.38;;;9.40;99.90;;;;;;5034477;28;20049;-77
2021/12/28 01:36:53;;;;;;;19.70;9.32;;;9.40;99.90;;;;;;5032988;28;20044;-77
2021/12/28 01:39:19;;;;;;;23.67;9.05;;;9.30;99.90;;;;;;5032511;28;20025;-77
2021/12/28 01:41:45;;;;;;;23.63;8.95;;;9.30;99.90;;;;;;5033090;28;20022;-77
2021/12/28 01:44:12;;;;;;;21.77;8.27;;;9.30;99.90;;;;;;5032955;28;20060;-77
2021/12/28 01:46:38;;;;;;;26.08;9.43;;;9.30;99.90;;;;;;5032698;28;20075;-77
2021/12/28 01:49:06;;;;;;;26.83;9.10;;;9.30;99.90;;;;;;5032446;28;20129;-77
2021/12/28 01:51:33;;;;;;;22.88;8.38;;;9.20;99.90;;;;;;5030537;28;20025;-77
2021/12/28 01:54:00;;;;;;;20.77;8.45;;;9.20;99.90;;;;;;5032403;28;20053;-76
2021/12/28 01:56:34;;;;;;;20.10;8.40;;;9.10;99.90;;;;;;5032720;28;20044;-76
2021/12/28 01:59:00;;;;;;;20.10;7.95;;;9.20;99.90;;;;;;5032499;28;20037;-76
2021/12/28 02:01:27;;;;;;;20.38;8.10;;;9.20;99.90;;;;;;5032690;28;20044;-76
2021/12/28 02:03:53;;;;;;;17.40;7.05;;;9.20;99.90;;;;;;5032343;28;20029;-76
2021/12/28 02:06:19;;;;;;;25.05;7.55;;;9.30;99.90;;;;;;5032750;28;20029;-76
2021/12/28 02:08:46;;;;;;;21.08;7.63;;;9.20;99.90;;;;;;5031907;28;20028;-76
2021/12/28 02:11:13;;;;;;;24.02;7.47;;;9.20;99.90;;;;;;5032330;28;20083;-76
2021/12/28 02:13:39;;;;;;;21.10;7.80;;;9.20;99.90;;;;;;5032703;28;20029;-77
2021/12/28 02:16:06;;;;;;;25.63;7.30;;;9.20;99.90;;;;;;5032151;28;20036;-77
2021/12/28 02:18:34;;;;;;;15.93;5.70;;;9.30;99.90;;;;;;5032359;28;20029;-79
2021/12/28 02:21:03;;;;;;;18.70;6.13;;;9.30;99.90;;;;;;5031775;28;20048;-78
2021/12/28 02:23:29;;;;;;;21.58;6.15;;;9.30;99.90;;;;;;5032336;28;20029;-78
2021/12/28 02:25:55;;;;;;;21.83;7.00;;;9.30;99.90;;;;;;5032326;28;20029;-79
2021/12/28 02:28:21;;;;;;;25.50;7.63;;;9.30;99.90;;;;;;5032844;28;20052;-79
2021/12/28 02:30:50;;;;;;;17.92;6.38;;;9.30;99.90;;;;;;5046676;28;20048;-80
2021/12/28 02:33:17;;;;;;;20.50;6.30;;;9.20;99.90;;;;;;5033915;28;20083;-79
2021/12/28 02:35:43;;;;;;;22.50;6.72;;;9.20;99.90;;;;;;5032196;28;20104;-80
2021/12/28 02:38:11;;;;;;;22.80;8.45;;;9.20;99.90;;;;;;5032303;28;20080;-79
2021/12/28 02:40:39;;;;;;;18.98;7.72;;;9.20;99.90;;;;;;5032077;28;20029;-79
2021/12/28 02:43:06;;;;;;;23.45;8.98;;;9.10;99.90;;;;;;5032266;28;20033;-78
2021/12/28 02:45:38;;;;;;;25.38;8.23;;;9.10;99.90;;;;;;5031622;28;20037;-78
2021/12/28 02:48:06;;;;;;;26.67;9.10;;;9.10;99.90;;;;;;5032744;28;20037;-77
2021/12/28 02:50:43;;;;;;;20.63;7.72;;;9.10;99.90;;;;;;5032050;28;20108;-77
2021/12/28 02:53:10;;;;;;;28.85;8.93;;;9.10;99.90;;;;;;5031224;28;20029;-77
2021/12/28 02:55:37;;;;;;;27.98;8.63;;;9.10;99.90;;;;;;5031995;28;20490;-79
2021/12/28 02:58:06;;;;;;;24.63;8.90;;;9.10;99.90;;;;;;5026275;28;20132;-79
2021/12/28 03:00:49;;;;;;;22.35;9.18;;;9.10;99.90;;;;;;5031813;28;20055;-78
2021/12/28 03:03:17;;;;;;;24.02;8.57;;;9.10;99.90;;;;;;5031700;28;20112;-78
2021/12/28 03:05:45;;;;;;;21.77;8.27;;;8.90;99.90;;;;;;5031991;28;20022;-78
2021/12/28 03:08:12;;;;;;;20.08;8.93;;;8.90;99.90;;;;;;5032033;28;20064;-77
2021/12/28 03:10:39;;;;;;;20.58;7.57;;;8.90;99.90;;;;;;5031476;28;20089;-78
2021/12/28 03:13:06;;;;;;;21.70;8.02;;;8.90;99.90;;;;;;5032166;28;20033;-79
2021/12/28 03:15:32;;;;;;;21.27;8.57;;;8.80;99.90;;;;;;5031305;28;20061;-78
2021/12/28 03:17:58;;;;;;;21.48;8.82;;;8.80;99.90;;;;;;5031824;28;20037;-78
2021/12/28 03:20:23;;;;;;;25.58;8.85;;;8.70;99.90;;;;;;5031066;28;20029;-78
2021/12/28 03:22:49;;;;;;;24.23;8.77;;;8.70;99.90;;;;;;5032041;28;20025;-78
2021/12/28 03:25:15;;;;;;;21.77;8.18;;;8.60;99.90;;;;;;5031899;28;20028;-76
2021/12/28 03:27:42;;;;;;;23.08;7.90;;;8.60;99.90;;;;;;5036204;28;20026;-77
2021/12/28 03:30:12;;;;;;;28.67;9.25;;;8.70;99.90;;;;;;5038477;28;20112;-76
2021/12/28 03:32:38;;;;;;;21.55;8.45;;;8.70;99.90;;;;;;5033604;28;20029;-76
2021/12/28 03:35:06;;;;;;;27.80;8.52;;;8.70;99.90;;;;;;5035023;28;20025;-76
2021/12/28 03:37:33;;;;;;;21.15;9.15;;;8.70;99.90;;;;;;5035329;28;20148;-76
2021/12/28 03:39:59;;;;;;;26.48;9.43;;;8.60;99.90;;;;;;5034613;28;20108;-76
2021/12/28 03:42:26;;;;;;;24.17;9.93;;;8.60;99.90;;;;;;5035317;28;20104;-76
2021/12/28 03:44:52;;;;;;;28.58;9.30;;;8.60;99.90;;;;;;5034706;28;20033;-76
2021/12/28 03:47:17;;;;;;;19.40;9.00;;;8.60;99.90;;;;;;5035329;28;20043;-76
2021/12/28 03:49:43;;;;;;;30.92;9.63;;;8.60;99.90;;;;;;5034749;28;20530;-76
2021/12/28 03:52:09;;;;;;;24.55;9.35;;;8.50;99.90;;;;;;5034782;28;20037;-76
2021/12/28 03:54:34;;;;;;;23.10;10.02;;;8.50;99.90;;;;;;5034729;28;20408;-76
2021/12/28 03:57:05;;;;;;;18.95;9.27;;;8.50;99.90;;;;;;5034982;28;20067;-76
2021/12/28 03:59:31;;;;;;;26.75;10.55;;;8.50;99.90;;;;;;5034640;28;20033;-76
2021/12/28 04:01:56;;;;;;;21.13;9.23;;;8.60;99.90;;;;;;5032850;28;20036;-76
2021/12/28 04:04:22;;;;;;;21.08;9.30;;;8.60;99.90;;;;;;5035031;28;20051;-76
2021/12/28 04:06:48;;;;;;;22.20;8.93;;;8.60;99.90;;;;;;5034633;28;20022;-76
2021/12/28 04:09:20;;;;;;;16.65;8.70;;;8.50;99.90;;;;;;5034433;28;20110;-76
2021/12/28 04:11:47;;;;;;;23.17;9.60;;;8.60;99.90;;;;;;5034573;28;20485;-77
2021/12/28 04:14:12;;;;;;;22.33;9.85;;;8.50;99.90;;;;;;5034643;28;20038;-76
2021/12/28 04:16:38;;;;;;;21.50;9.27;;;8.40;99.90;;;;;;5034326;28;20072;-77
2021/12/28 04:19:05;;;;;;;22.02;9.57;;;8.50;99.90;;;;;;5034081;28;20121;-76
2021/12/28 04:21:32;;;;;;;23.50;10.57;;;8.50;99.90;;;;;;5034283;28;20030;-76
2021/12/28 04:23:59;;;;;;;22.25;10.10;;;8.50;99.90;;;;;;5034680;28;20060;-76
2021/12/28 04:26:26;;;;;;;18.88;9.05;;;8.60;99.90;;;;;;5046761;28;20033;-78
2021/12/28 04:28:52;;;;;;;16.73;8.85;;;8.60;99.90;;;;;;5032888;28;20032;-77
2021/12/28 04:31:18;;;;;;;20.05;8.77;;;8.60;99.90;;;;;;5033826;28;20026;-76
2021/12/28 04:33:44;;;;;;;19.00;8.65;;;8.60;99.90;;;;;;5034573;28;20036;-76
2021/12/28 04:36:15;;;;;;;22.88;9.05;;;8.60;99.90;;;;;;5033881;28;20397;-76
2021/12/28 04:38:45;;;;;;;19.80;8.77;;;8.70;99.90;;;;;;5031737;28;20049;-76
2021/12/28 04:41:11;;;;;;;22.60;8.52;;;8.70;99.90;;;;;;5033962;28;20117;-76
2021/12/28 04:43:37;;;;;;;16.67;7.78;;;8.70;99.90;;;;;;5033783;28;20025;-76
2021/12/28 04:46:04;;;;;;;18.60;7.82;;;8.70;99.90;;;;;;5033442;28;20030;-76
2021/12/28 04:48:30;;;;;;;17.40;8.10;;;8.70;99.90;;;;;;5034085;28;20033;-77
2021/12/28 04:50:56;;;;;;;21.20;7.82;;;8.70;99.90;;;;;;5033394;28;20040;-76
2021/12/28 04:53:22;;;;;;;17.33;8.32;;;8.80;99.90;;;;;;5034623;28;20484;-76
2021/12/28 04:55:50;;;;;;;22.00;7.85;;;8.80;99.90;;;;;;5033820;28;20450;-76
2021/12/28 04:58:15;;;;;;;20.75;7.03;;;8.80;99.90;;;;;;5033908;28;20029;-76
2021/12/28 05:00:43;;;;;;;21.40;6.95;;;8.80;99.90;;;;;;5033628;28;20087;-76
2021/12/28 05:03:09;;;;;;;21.85;8.23;;;8.80;99.90;;;;;;5033871;28;20029;-76
2021/12/28 05:05:36;;;;;;;16.75;6.72;;;8.90;99.90;;;;;;5033332;28;20460;-77
2021/12/28 05:08:05;;;;;;;17.70;6.68;;;8.90;99.90;;;;;;5033806;28;20038;-77
2021/12/28 05:10:32;;;;;;;19.63;6.25;;;9.00;99.90;;;;;;5032954;28;20032;-79
2021/12/28 05:12:57;;;;;;;13.85;5.78;;;8.90;99.90;;;;;;5034096;28;20041;-79
2021/12/28 05:15:23;;;;;;;21.75;7.13;;;8.90;99.90;;;;;;5033742;28;20504;-78
2021/12/28 05:17:49;;;;;;;24.15;6.97;;;8.90;99.90;;;;;;5033822;28;20116;-78
2021/12/28 05:20:14;;;;;;;21.70;5.72;;;9.00;99.90;;;;;;5033829;28;20415;-78
2021/12/28 05:22:40;;;;;;;17.02;5.32;;;9.00;99.90;;;;;;5033250;28;20022;-78
2021/12/28 05:25:07;;;;;;;18.73;6.25;;;9.00;99.90;;;;;;5038363;28;20029;-79
2021/12/28 05:27:32;;;;;;;14.05;5.05;;;9.00;99.90;;;;;;5033729;28;20380;-78
2021/12/28 05:29:58;;;;;;;17.40;4.97;;;9.00;99.90;;;;;;5033356;28;20025;-78
2021/12/28 05:32:24;;;;;;;19.08;4.82;;;9.00;99.90;;;;;;5033581;28;20033;-78
2021/12/28 05:34:49;;;;;;;16.55;5.35;;;9.00;99.90;;;;;;5033371;28;20025;-78
2021/12/28 05:37:15;;;;;;;19.65;6.03;;;9.00;99.90;;;;;;5033556;28;20386;-79
2021/12/28 05:39:41;;;;;;;16.65;5.82;;;9.00;99.90;;;;;;5032919;28;20210;-79
2021/12/28 05:42:07;;;;;;;15.43;4.50;;;9.10;99.90;;;;;;5032559;28;20061;-79
2021/12/28 05:44:33;;;;;;;15.73;5.20;;;9.00;99.90;;;;;;5033343;28;20100;-78
2021/12/28 05:46:59;;;;;;;19.95;5.72;;;9.10;99.90;;;;;;5033442;28;20504;-78
2021/12/28 05:49:25;;;;;;;20.20;5.20;;;9.10;99.90;;;;;;5033205;28;20523;-79
2021/12/28 05:51:51;;;;;;;17.42;5.25;;;9.10;99.90;;;;;;5032878;28;20037;-78
2021/12/28 05:54:17;;;;;;;19.10;5.55;;;9.00;99.90;;;;;;5032492;28;20049;-78
2021/12/28 05:56:44;;;;;;;20.88;4.68;;;9.00;99.90;;;;;;5032541;28;20033;-78
2021/12/28 05:59:10;;;;;;;24.45;4.95;;;9.00;99.90;;;;;;5032773;28;20541;-77
2021/12/28 06:01:35;;;;;;;22.65;4.82;;;9.00;99.90;;;;;;5033337;28;20066;-78
2021/12/28 06:04:02;;;;;;;19.20;5.15;;;9.00;99.90;;;;;;5032891;28;20395;-78
2021/12/28 06:06:27;;;;;;;20.30;4.85;;;9.00;99.90;;;;;;5032492;28;20048;-78
2021/12/28 06:08:53;;;;;;;17.02;4.32;;;9.10;99.90;;;;;;5032097;28;20408;-78
2021/12/28 06:11:19;;;;;;;16.63;4.45;;;9.10;99.90;;;;;;5032721;28;20021;-78
2021/12/28 06:13:45;;;;;;;18.98;4.70;;;9.10;99.90;;;;;;5033024;28;20037;-76
2021/12/28 06:16:11;;;;;;;19.85;4.78;;;9.10;99.90;;;;;;5032036;28;20022;-77
2021/12/28 06:18:38;;;;;;;20.55;4.80;;;9.10;99.90;;;;;;5032398;28;20420;-77
2021/12/28 06:21:04;;;;;;;18.35;4.85;;;9.10;99.90;;;;;;5035025;28;20033;-79
2021/12/28 06:23:31;;;;;;;20.83;4.70;;;9.10;99.90;;;;;;5032302;28;20477;-79
2021/12/28 06:25:56;;;;;;;24.25;5.25;;;9.10;99.90;;;;;;5032497;28;20514;-79
2021/12/28 06:28:22;;;;;;;27.33;4.82;;;9.10;99.90;;;;;;5032737;28;20029;-78
2021/12/28 06:30:48;;;;;;;25.77;4.38;;;9.10;99.90;;;;;;5032249;28;20469;-78
2021/12/28 06:33:15;;;;;;;21.33;4.40;;;9.10;99.90;;;;;;5031868;28;20476;-78
2021/12/28 06:35:41;;;;;;;15.90;3.92;;;9.10;99.90;;;;;;5032221;28;20025;-78
2021/12/28 06:38:07;;;;;;;19.08;4.28;;;9.10;99.90;;;;;;5032232;28;20041;-78
2021/12/28 06:40:33;;;;;;;21.88;4.60;;;9.10;99.90;;;;;;5032212;28;20369;-78
2021/12/28 06:42:58;;;;;;;22.10;4.88;;;9.10;99.90;;;;;;5032301;28;20030;-78
2021/12/28 06:45:24;;;;;;;22.60;4.50;;;9.10;99.90;;;;;;5031916;28;20060;-77
2021/12/28 06:47:50;;;;;;;26.27;4.18;;;9.10;99.90;;;;;;5031829;28;20457;-78
2021/12/28 06:50:17;;;;;;;23.40;5.18;;;9.10;99.90;;;;;;5032083;28;20108;-77
2021/12/28 06:52:43;;;;;;;15.75;4.00;;;9.10;99.90;;;;;;5032187;28;20022;-77
2021/12/28 06:55:10;;;;;;;22.65;4.80;;;9.10;99.90;;;;;;5031127;28;20511;-77
2021/12/28 06:57:37;;;;;;;23.20;4.20;;;9.10;99.90;;;;;;5032007;28;20068;-76
2021/12/28 07:00:09;;;;;;;15.38;4.18;;;9.10;99.90;;;;;;5029669;28;20038;-76
2021/12/28 07:02:35;;;;;;;19.10;4.15;;;9.20;99.90;;;;;;5031811;28;20025;-77
2021/12/28 07:05:01;;;;;;;25.40;4.97;;;9.10;99.90;;;;;;5031201;28;20079;-76
2021/12/28 07:07:26;;;;;;;20.55;4.20;;;9.20;99.90;;;;;;5033024;28;20049;-82
2021/12/28 07:09:52;;;;;;;23.25;4.65;;;9.20;99.90;;;;;;5035887;28;20021;-77
2021/12/28 07:12:17;;;;;;;24.63;4.65;;;9.20;99.90;;;;;;5034785;28;20431;-77
2021/12/28 07:14:43;;;;;;;21.90;3.72;;;9.20;99.90;;;;;;5036560;28;20042;-77
2021/12/28 07:17:09;;;;;;;21.98;3.72;;;9.20;99.90;;;;;;5035390;28;20374;-77
2021/12/28 07:19:35;;;;;;;16.15;3.53;;;9.20;99.90;;;;;;5034190;28;20386;-78
2021/12/28 07:22:01;;;;;;;14.05;3.10;;;9.20;99.90;;;;;;5037150;28;20037;-78
2021/12/28 07:24:27;;;;;;;19.60;3.42;;;9.20;99.90;;;;;;5035651;28;20029;-78
2021/12/28 07:26:53;;;;;;;19.60;3.65;;;9.30;99.90;;;;;;5034891;28;20119;-78
2021/12/28 07:29:19;;;;;;;23.15;3.55;;;9.20;99.90;;;;;;5033419;28;20500;-78
2021/12/28 07:31:44;;;;;;;13.73;3.17;;;9.20;99.90;;;;;;5033546;28;20026;-78
2021/12/28 07:34:10;;;;;;;14.00;3.15;;;9.20;99.90;;;;;;5033478;28;20021;-78
2021/12/28 07:36:36;;;;;;;18.75;3.30;;;9.30;99.90;;;;;;5033747;28;20047;-78
2021/12/28 07:39:03;;;;;;;22.40;3.85;;;9.30;99.90;;;;;;5033565;28;20029;-80
2021/12/28 07:41:29;;;;;;;23.75;3.53;;;9.30;99.90;;;;;;5033903;28;20037;-77
2021/12/28 07:43:54;;;;;;;19.90;3.05;;;9.20;99.90;;;;;;5035408;28;20435;-78
2021/12/28 07:46:21;;;;;;;23.52;4.40;;;9.20;99.90;;;;;;5033590;28;20033;-76
2021/12/28 07:48:47;;;;;;;16.42;3.72;;;9.20;99.90;;;;;;5035209;28;20376;-77
2021/12/28 07:51:13;;;;;;;20.48;3.53;;;9.30;99.90;;;;;;5035068;28;20520;-75
2021/12/28 07:53:38;;;;;;;20.08;3.97;;;9.30;99.90;;;;;;5034771;28;20393;-75
2021/12/28 07:56:04;;;;;;;18.17;3.15;;;9.30;99.90;;;;;;5034318;28;20026;-76
2021/12/28 07:58:30;;;;;;;19.83;3.38;;;9.30;99.90;;;;;;5034694;28;20465;-76
2021/12/28 08:00:56;;;;;;;19.05;3.05;;;9.30;99.90;;;;;;5035071;28;20067;-76
2021/12/28 08:03:22;;;;;;;23.70;3.83;;;9.30;99.90;;;;;;5034737;28;20412;-77
2021/12/28 08:05:49;;;;;;;17.17;3.78;;;9.40;99.90;;;;;;5034924;28;20416;-78
2021/12/28 08:08:15;;;;;;;19.27;3.08;;;9.40;99.90;;;;;;5032921;28;20029;-79
2021/12/28 08:10:40;;;;;;;18.27;3.33;;;9.40;99.90;;;;;;5034643;28;20029;-76
2021/12/28 08:13:06;;;;;;;17.00;2.90;;;9.40;99.90;;;;;;5035204;28;20028;-76
2021/12/28 08:15:32;;;;;;;15.55;3.08;;;9.40;99.90;;;;;;5034404;28;20424;-75
2021/12/28 08:17:57;;;;;;;20.48;2.90;;;9.40;99.90;;;;;;5037421;28;20452;-76
2021/12/28 08:20:23;;;;;;;17.85;3.22;;;9.40;99.90;;;;;;5034707;28;20026;-76
2021/12/28 08:22:49;;;;;;;17.85;3.17;;;9.50;99.90;;;;;;5034679;28;20420;-76
2021/12/28 08:25:18;;;;;;;18.95;2.88;;;9.40;99.90;;;;;;5034110;28;20056;-76
2021/12/28 08:27:43;;;;;;;20.17;4.25;;;9.40;99.90;;;;;;5030680;28;20026;-76
2021/12/28 08:30:11;;;;;;;16.00;3.20;;;9.40;99.90;;;;;;5033961;28;20056;-74
2021/12/28 08:32:37;;;;;;;16.63;2.70;;;9.40;99.90;;;;;;5034054;28;20040;-76
2021/12/28 08:35:05;;;;;;;11.52;2.72;;;9.40;99.90;;;;;;5033628;28;20396;-75
2021/12/28 08:37:31;;;;;;;13.65;2.38;;;9.40;99.90;;;;;;5032434;28;20484;-74
2021/12/28 08:39:58;;;;;;;18.85;3.10;;;9.40;99.90;;;;;;5033259;28;20052;-74
2021/12/28 08:42:24;;;;;;;12.80;2.55;;;9.50;99.90;;;;;;5034209;28;20079;-74
2021/12/28 08:44:50;;;;;;;12.57;2.67;;;9.50;99.90;;;;;;5032908;28;20381;-74
2021/12/28 08:47:17;;;;;;;13.27;2.80;;;9.50;99.90;;;;;;5024327;28;20033;-73
2021/12/28 08:49:42;;;;;;;11.85;2.80;;;9.40;99.90;;;;;;5027748;28;20030;-73
2021/12/28 08:52:09;;;;;;;18.92;3.03;;;9.40;99.90;;;;;;5030810;28;20026;-74
2021/12/28 08:54:35;;;;;;;14.90;2.72;;;9.40;99.90;;;;;;5032695;28;20044;-74
2021/12/28 08:57:01;;;;;;;10.23;2.67;;;9.50;99.90;;;;;;5033866;28;20037;-73
2021/12/28 08:59:26;;;;;;;10.00;2.42;;;9.50;99.90;;;;;;5033304;28;20033;-72
2021/12/28 09:01:54;;;;;;;12.00;2.83;;;9.50;99.90;;;;;;5033868;28;20155;-72
2021/12/28 09:04:20;;;;;;;11.80;2.78;;;9.50;99.90;;;;;;5032408;28;20040;-73
2021/12/28 09:06:46;;;;;;;12.35;3.05;;;9.50;99.90;;;;;;5033529;28;20036;-74
2021/12/28 09:09:12;;;;;;;20.48;3.30;;;9.50;99.90;;;;;;5033215;28;20029;-73
2021/12/28 09:11:38;;;;;;;13.52;2.65;;;9.50;99.90;;;;;;5033752;28;20022;-74
2021/12/28 09:14:04;;;;;;;13.27;3.08;;;9.50;99.90;;;;;;5035886;28;20058;-76
2021/12/28 09:16:30;;;;;;;17.00;2.67;;;9.60;99.90;;;;;;5035591;28;20052;-74
2021/12/28 09:18:55;;;;;;;13.52;2.85;;;9.60;99.90;;;;;;5033030;28;20477;-75
2021/12/28 09:21:21;;;;;;;12.05;2.58;;;9.60;99.90;;;;;;5032893;28;20034;-77
2021/12/28 09:23:47;;;;;;;8.82;2.50;;;9.60;99.90;;;;;;5033254;28;20410;-76
2021/12/28 09:26:12;;;;;;;10.13;2.95;;;9.60;99.90;;;;;;5033399;28;20037;-75
2021/12/28 09:28:38;;;;;;;9.18;2.40;;;9.60;99.90;;;;;;5031295;28;20029;-75
2021/12/28 09:31:04;;;;;;;7.78;2.40;;;9.70;99.90;;;;;;5029982;28;20037;-75
2021/12/28 09:33:29;;;;;;;6.50;2.20;;;9.70;99.90;;;;;;5030850;28;20537;-75
2021/12/28 09:35:55;;;;;;;6.53;2.92;;;9.70;99.90;;;;;;5030838;28;20076;-77
2021/12/28 09:38:22;;;;;;;7.15;2.55;;;9.70;99.90;;;;;;5031524;28;20095;-77
2021/12/28 09:40:50;;;;;;;8.65;2.90;;;9.70;99.90;;;;;;5031400;28;20109;-78
2021/12/28 09:43:16;;;;;;;8.25;2.67;;;9.70;99.90;;;;;;5032108;28;20052;-78
2021/12/28 09:45:41;;;;;;;6.63;2.10;;;9.70;99.90;;;;;;5031029;28;20029;-78
2021/12/28 09:48:09;;;;;;;7.57;2.35;;;9.70;99.90;;;;;;5032689;28;20036;-78
2021/12/28 09:50:39;;;;;;;9.30;2.60;;;9.70;99.90;;;;;;5032621;28;20065;-79
2021/12/28 09:53:04;;;;;;;6.20;2.53;;;9.80;99.90;;;;;;5032085;28;20025;-78
2021/12/28 09:55:30;;;;;;;12.60;3.33;;;9.80;99.90;;;;;;5032176;28;20032;-78
2021/12/28 09:57:58;;;;;;;5.53;2.60;;;9.80;99.90;;;;;;5032516;28;20064;-77
2021/12/28 10:00:25;;;;;;;5.32;2.50;;;9.80;99.90;;;;;;5032351;28;20479;-78
2021/12/28 10:02:52;;;;;;;6.53;2.35;;;9.80;99.90;;;;;;5031280;28;20025;-78
2021/12/28 10:05:21;;;;;;;5.70;2.80;;;9.90;99.90;;;;;;5031721;28;20032;-78
2021/12/28 10:07:56;;;;;;;3.28;2.42;;;9.90;99.90;;;;;;5032159;28;20397;-77
2021/12/28 10:10:24;;;;;;;5.88;2.33;;;9.90;99.90;;;;;;5030309;28;20029;-79
2021/12/28 10:12:57;;;;;;;7.30;2.70;;;9.90;99.90;;;;;;5041468;28;20087;-80
2021/12/28 10:15:26;;;;;;;8.80;3.05;;;9.90;99.90;;;;;;5033109;28;20456;-79
2021/12/28 10:17:56;;;;;;;5.50;2.45;;;9.90;99.90;;;;;;5032827;28;20041;-78
2021/12/28 10:20:24;;;;;;;4.30;2.45;;;9.90;99.90;;;;;;5032478;28;20117;-78
2021/12/28 10:22:53;;;;;;;9.63;3.03;;;9.90;99.90;;;;;;5032507;28;20025;-78
2021/12/28 10:25:25;;;;;;;8.30;3.40;;;9.90;99.90;;;;;;5029018;28;20357;-78
2021/12/28 10:27:54;;;;;;;6.65;3.30;;;10.00;99.90;;;;;;5032462;28;20075;-78
2021/12/28 10:30:21;;;;;;;3.47;3.00;;;9.90;99.90;;;;;;5032259;28;20025;-78
2021/12/28 10:32:53;;;;;;;5.20;2.80;;;10.00;99.90;;;;;;5032511;28;20091;-78
2021/12/28 10:35:22;;;;;;;5.95;3.10;;;10.00;99.90;;;;;;5032129;28;20029;-78
2021/12/28 10:37:54;;;;;;;5.95;3.10;;;10.10;99.90;;;;;;5032060;28;20497;-77
2021/12/28 10:40:30;;;;;;;6.60;3.10;;;10.10;99.90;;;;;;5031969;28;20025;-78
2021/12/28 10:43:01;;;;;;;6.00;3.08;;;10.20;99.90;;;;;;5029618;28;20423;-78
2021/12/28 10:45:36;;;;;;;4.88;3.13;;;10.20;99.90;;;;;;5028622;28;20033;-78
2021/12/28 10:48:06;;;;;;;5.57;3.05;;;10.20;99.90;;;;;;5029730;28;20063;-78
2021/12/28 10:50:41;;;;;;;6.50;3.00;;;10.20;99.90;;;;;;5031229;28;20033;-78
2021/12/28 10:53:39;;;;;;;4.88;3.50;;;10.20;99.90;;;;;;5031772;28;20087;-78
2021/12/28 10:56:09;;;;;;;5.50;3.08;;;10.20;99.90;;;;;;5029167;28;20108;-77
2021/12/28 10:58:40;;;;;;;4.13;2.83;;;10.20;99.90;;;;;;5032316;28;20072;-78
2021/12/28 11:01:12;;;;;;;4.03;2.92;;;10.20;99.90;;;;;;5030084;28;20017;-78
2021/12/28 11:03:43;;;;;;;3.75;3.20;;;10.20;99.90;;;;;;5031693;28;20026;-78
2021/12/28 11:06:15;;;;;;;6.45;3.38;;;10.20;99.90;;;;;;5031417;28;20033;-78
2021/12/28 11:08:43;;;;;;;4.63;3.22;;;10.20;99.90;;;;;;5029893;28;20060;-78
2021/12/28 11:11:12;;;;;;;4.22;3.60;;;10.20;99.90;;;;;;5031404;28;20091;-78
2021/12/28 11:13:38;;;;;;;4.18;3.22;;;10.20;99.90;;;;;;5032248;28;20029;-78
2021/12/28 11:16:06;;;;;;;6.32;3.10;;;10.20;99.90;;;;;;5031426;28;20032;-78
2021/12/28 11:18:36;;;;;;;5.22;4.00;;;10.30;99.90;;;;;;5031721;28;20134;-78
2021/12/28 11:21:09;;;;;;;4.90;3.72;;;10.30;99.90;;;;;;5031388;28;20489;-78
2021/12/28 11:23:35;;;;;;;7.25;4.15;;;10.30;99.90;;;;;;5031673;28;20037;-78
2021/12/28 11:26:25;;;;;;;4.75;3.55;;;10.30;99.90;;;;;;5031154;28;20373;-78
2021/12/28 11:29:07;;;;;;;4.13;3.72;;;10.30;99.90;;;;;;5031859;28;20042;-78
2021/12/28 11:31:45;;;;;;;5.65;3.72;;;10.30;99.90;;;;;;5031476;28;20029;-78
2021/12/28 11:34:22;;;;;;;5.22;4.63;;;10.30;99.90;;;;;;5029848;28;20480;-78
2021/12/28 11:37:01;;;;;;;6.95;3.78;;;10.30;99.90;;;;;;5031072;28;20037;-78
2021/12/28 11:39:32;;;;;;;3.92;3.53;;;10.40;99.90;;;;;;5031043;28;20498;-77
2021/12/28 11:41:59;;;;;;;3.85;3.47;;;10.30;99.90;;;;;;5031509;28;20025;-78
2021/12/28 11:44:26;;;;;;;4.63;3.50;;;10.40;99.90;;;;;;5031390;28;20139;-77
2021/12/28 11:46:54;;;;;;;6.20;3.83;;;10.40;99.90;;;;;;5031151;28;20029;-77
2021/12/28 11:49:24;;;;;;;4.40;3.05;;;10.40;99.90;;;;;;5031504;28;20032;-77
2021/12/28 11:51:51;;;;;;;4.90;3.42;;;10.40;99.90;;;;;;5031081;28;20500;-77
2021/12/28 11:54:18;;;;;;;4.18;3.60;;;10.40;99.90;;;;;;5033483;28;20057;-77
2021/12/28 11:56:49;;;;;;;4.07;3.70;;;10.50;99.90;;;;;;5034852;28;20075;-77
2021/12/28 11:59:25;;;;;;;5.25;3.88;;;10.50;99.90;;;;;;5035016;28;20029;-77
2021/12/28 12:01:51;;;;;;;6.78;4.00;;;10.50;99.90;;;;;;5034968;28;20593;-77
2021/12/28 12:04:35;;;;;;;4.38;3.70;;;10.50;99.90;;;;;;5034841;28;20029;-77
2021/12/28 12:07:05;;;;;;;4.05;3.67;;;10.50;99.90;;;;;;5031850;28;20034;-77
2021/12/28 12:09:55;;;;;;;3.78;3.40;;;10.50;99.90;;;;;;5034389;28;20380;-78
2021/12/28 12:12:33;;;;;;;4.45;3.67;;;10.50;99.90;;;;;;5034230;28;20039;-77
2021/12/28 12:14:58;;;;;;;7.78;4.55;;;10.50;99.90;;;;;;5035244;28;20432;-77
2021/12/28 12:17:24;;;;;;;7.07;3.90;;;10.60;99.90;;;;;;5034401;28;20029;-77
2021/12/28 12:19:50;;;;;;;6.03;3.83;;;10.60;99.90;;;;;;5034262;28;20377;-78
2021/12/28 12:22:38;;;;;;;6.72;3.85;;;10.50;99.90;;;;;;5033945;28;20056;-78
2021/12/28 12:25:07;;;;;;;6.07;3.97;;;10.50;99.90;;;;;;5033372;28;20030;-77
2021/12/28 12:28:05;;;;;;;4.10;3.75;;;10.50;99.90;;;;;;5034693;28;20033;-77
2021/12/28 12:30:34;;;;;;;4.63;2.65;;;10.50;99.90;;;;;;5034445;28;20040;-78
2021/12/28 12:33:06;;;;;;;2.47;2.00;;;10.50;99.90;;;;;;5034533;28;20034;-79
2021/12/28 12:35:55;;;;;;;3.85;2.33;;;10.50;99.90;;;;;;5031628;28;20025;-78
2021/12/28 12:38:24;;;;;;;3.25;2.63;;;10.50;99.90;;;;;;5031806;28;20092;-76
2021/12/28 12:40:59;;;;;;;3.20;1.83;;;10.50;99.90;;;;;;5033950;28;20021;-77
2021/12/28 12:43:39;;;;;;;2.95;1.83;;;10.40;99.90;;;;;;5034001;28;20136;-77
2021/12/28 12:46:23;;;;;;;3.92;1.00;;;10.40;99.90;;;;;;5032640;28;20532;-77
2021/12/28 12:48:54;;;;;;;5.68;1.02;;;10.30;99.90;;;;;;5032869;28;20037;-77
2021/12/28 12:53:54;;;;;;;8.75;1.25;;;10.30;99.90;;;;;;5033897;28;20045;-75